createdAt,value
2018-11-03T18:24:09.696Z,51.30
2018-11-03T18:26:36.792Z,64.33
2018-11-03T18:29:04.161Z,49.80
2018-11-03T18:31:31.266Z,48.30
2018-11-03T18:33:58.369Z,54.53
2018-11-03T18:36:25.438Z,45.87
2018-11-03T18:38:52.497Z,53.13
2018-11-03T18:41:19.658Z,57.70
2018-11-03T18:43:46.778Z,64.90
2018-11-03T18:46:13.842Z,52.47
2018-11-03T18:48:40.946Z,63.93
2018-11-03T18:51:08.053Z,68.27
2018-11-03T18:53:35.116Z,51.70
2018-11-03T18:56:02.226Z,52.23
2018-11-03T18:58:29.373Z,53.43
2018-11-03T19:00:56.447Z,50.23
2018-11-03T19:03:23.554Z,54.67
2018-11-03T19:05:50.660Z,52.93
2018-11-03T19:08:17.774Z,62.20
2018-11-03T19:10:44.865Z,63.63
2018-11-03T19:13:12.058Z,57.73
2018-11-03T19:15:39.069Z,71.00
2018-11-03T19:18:06.181Z,65.77
2018-11-03T19:20:33.276Z,57.67
2018-11-03T19:23:00.347Z,67.70
2018-11-03T19:25:27.448Z,63.13
2018-11-03T19:27:54.513Z,70.50
2018-11-03T19:30:21.723Z,61.10
2018-11-03T19:32:48.808Z,66.00
2018-11-03T19:35:15.900Z,52.17
2018-11-03T19:37:42.993Z,59.07
2018-11-03T19:40:11.246Z,62.77
2018-11-03T19:42:38.748Z,63.00
2018-11-03T19:45:05.823Z,64.50
2018-11-03T19:47:32.906Z,54.80
2018-11-03T19:50:00.006Z,62.20
2018-11-03T19:52:27.124Z,64.20
2018-11-03T19:54:54.218Z,53.90
2018-11-03T19:57:21.329Z,48.27
2018-11-03T19:59:48.413Z,54.43
2018-11-03T20:02:15.503Z,51.97
2018-11-03T20:04:42.570Z,58.50
2018-11-03T20:07:09.669Z,61.90
2018-11-03T20:09:36.749Z,52.90
2018-11-03T20:12:04.720Z,56.13
2018-11-03T20:14:31.810Z,58.67
2018-11-03T20:16:58.937Z,49.27
2018-11-03T20:19:26.054Z,45.83
2018-11-03T20:21:53.124Z,50.87
2018-11-03T20:24:20.180Z,38.93
2018-11-03T20:26:47.297Z,47.80
2018-11-03T20:29:14.357Z,41.73
2018-11-03T20:31:41.515Z,46.87
2018-11-03T20:34:08.608Z,40.40
2018-11-03T20:36:35.732Z,51.47
2018-11-03T20:39:04.473Z,42.57
2018-11-03T20:41:31.574Z,42.57
2018-11-03T20:43:58.728Z,42.37
2018-11-03T20:46:25.809Z,37.93
2018-11-03T20:48:52.906Z,60.90
2018-11-03T20:51:20.014Z,50.07
2018-11-03T20:53:47.152Z,46.37
2018-11-03T20:56:14.284Z,55.20
2018-11-03T20:58:41.358Z,71.33
2018-11-03T21:01:08.473Z,79.60
2018-11-03T21:03:35.599Z,53.23
2018-11-03T21:06:02.703Z,74.67
2018-11-03T21:08:29.772Z,64.70
2018-11-03T21:10:56.964Z,51.23
2018-11-03T21:13:24.199Z,39.20
2018-11-03T21:15:51.300Z,54.03
2018-11-03T21:18:18.433Z,47.00
2018-11-03T21:20:45.493Z,31.00
2018-11-03T21:23:12.629Z,29.97
2018-11-03T21:25:39.674Z,33.77
2018-11-03T21:28:06.750Z,40.27
2018-11-03T21:30:33.882Z,43.83
2018-11-03T21:33:01.170Z,56.83
2018-11-03T21:35:28.120Z,38.20
2018-11-03T21:37:55.234Z,34.93
2018-11-03T21:40:22.305Z,40.00
2018-11-03T21:42:49.400Z,43.40
2018-11-03T21:45:16.512Z,32.10
2018-11-03T21:47:43.581Z,32.33
2018-11-03T21:50:11.041Z,26.30
2018-11-03T21:52:38.486Z,35.23
2018-11-03T21:55:05.764Z,32.67
2018-11-03T21:57:32.992Z,28.63
2018-11-03T22:00:00.193Z,36.03
2018-11-03T22:02:27.265Z,33.40
2018-11-03T22:04:54.384Z,31.37
2018-11-03T22:07:21.452Z,39.27
2018-11-03T22:09:48.558Z,29.90
2018-11-03T22:12:15.757Z,39.60
2018-11-03T22:14:42.936Z,29.50
2018-11-03T22:17:10.050Z,60.57
2018-11-03T22:19:37.137Z,66.43
2018-11-03T22:22:04.350Z,32.17
2018-11-03T22:24:31.497Z,34.93
2018-11-03T22:26:58.615Z,39.40
2018-11-03T22:29:25.728Z,38.03
2018-11-03T22:31:52.865Z,38.90
2018-11-03T22:34:19.977Z,39.18
2018-11-03T22:36:47.045Z,34.93
2018-11-03T22:39:14.169Z,24.43
2018-11-03T22:41:41.333Z,543.93
2018-11-03T22:44:08.699Z,529.57
2018-11-03T22:46:35.833Z,563.22
2018-11-03T22:49:02.976Z,480.75
2018-11-03T22:51:30.866Z,540.53
2018-11-03T22:53:58.740Z,550.27
2018-11-03T22:56:25.897Z,521.80
2018-11-03T22:58:52.975Z,524.63
2018-11-03T23:01:20.085Z,562.80
2018-11-03T23:03:47.168Z,533.03
2018-11-03T23:06:14.269Z,532.07
2018-11-03T23:08:41.349Z,518.47
2018-11-03T23:11:08.456Z,502.25
2018-11-03T23:13:35.531Z,529.00
2018-11-03T23:16:02.632Z,532.77
2018-11-03T23:18:29.756Z,533.90
2018-11-03T23:20:56.858Z,531.07
2018-11-03T23:23:23.962Z,539.33
2018-11-03T23:25:51.091Z,525.40
2018-11-03T23:28:18.152Z,544.37
2018-11-03T23:30:45.257Z,521.40
2018-11-03T23:33:12.400Z,515.70
2018-11-03T23:35:39.521Z,332.32
2018-11-03T23:38:06.807Z,559.33
2018-11-03T23:40:33.993Z,495.23
2018-11-03T23:43:01.247Z,543.50
2018-11-03T23:45:28.322Z,501.07
2018-11-03T23:47:55.457Z,520.10
2018-11-03T23:50:22.556Z,549.67
2018-11-03T23:52:49.665Z,397.27
2018-11-03T23:55:16.757Z,395.00
2018-11-03T23:57:43.852Z,487.30
